Monday, November 20, 2017, 2:37 AM EST
Back to Local

KHPN, White Plains Westchester

Location: Greenwich, NY, United States Lat: 41.067
Local Time: 2:37 AM EST ( 7:37 GMT) Lon: -73.7
Time Zone: US/Eastern Elev: 439 ft

Show me the last for .
Show Decoded

2017-11-20 01:56 METAR KHPN 200656Z 28010G17KT 10SM FEW050 SCT085 03/M03 A2975 RMK AO2 SLP064
                 T00281033 $ =
2017-11-20 00:56 METAR KHPN 200556Z 26006KT 10SM BKN090 03/M02 A2978 RMK AO2 SLP071 T00281022
                 10061 20028 $ =
2017-11-19 23:56 METAR KHPN 200456Z 26006KT 10SM FEW050 03/M02 A2972 RMK AO2 SLP054 T00331022
                 401440033 $ =
2017-11-19 22:56 METAR KHPN 200356Z 29008KT 10SM SCT050 05/M03 A2974 =
2017-11-19 21:56 METAR KHPN 200256Z 28005KT 10SM SCT065 04/M04 A2972 RMK AO2 SLP068 T00441039 $ =
2017-11-19 20:56 METAR KHPN 200156Z 30010KT 10SM FEW090 05/M04 A2971 RMK AO2 SLP062 T00501039 $ =
2017-11-19 19:56 METAR KHPN 200056Z 28011KT 10SM FEW050 05/M04 A2969 RMK AO2 SLP057 T00501044 $ =
2017-11-19 18:56 METAR KHPN 192356Z 29011G18KT 06/M04 A2966 RMK AO2 SLP047 6//// T00561044 10083
                 20056 RVRNO $ =
2017-11-19 17:56 METAR KHPN 192256Z AUTO 29013G24KT 10SM 06/M05 A2963 RMK AO2 SLP036 T00561050
                 TSNO $ =
2017-11-19 16:56 METAR KHPN 192156Z 31024G34KT 10SM BKN040 06/M05 A2960 RMK AO2 PK WND 29034/2149
                 SLP025 T00561050 PNO $ =
2017-11-19 15:56 METAR KHPN 192056Z 30018G24KT 10SM BKN044 06/M03 A2957 RMK AO2 PK WND 31038/2007
                 SLP017 T00611028 53035 $ =
2017-11-19 14:56 METAR KHPN 191956Z 31022G29KT 10SM BKN040 07/M02 A2954 RMK AO2 PK WND 30033/1930
                 SLP005 T00671022 $ =
2017-11-19 13:56 METAR KHPN 191856Z 32023G31KT 10SM BKN041 08/M01 A2950 RMK AO2 PK WND 31039/1836
                 SLP991 T00781006 $ =
2017-11-19 12:56 METAR KHPN 191756Z 30021G36KT 10SM BKN041 08/M01 A2947 RMK AO2 PK WND 29037/1735
                 SLP981 60002 T00781011 10144 20072 51044 $ =
2017-11-19 11:56 METAR KHPN 191656Z 31024G33KT 10SM BKN044 08/M01 A2945 RMK AO2 PK WND 30038/1615
                 SLP976 T00781006 $ =
2017-11-19 10:56 METAR KHPN 191556Z 30026G35KT 10SM BKN040 08/M01 A2940 RMK AO2 PK WND 30038/1517
                 SLP960 T00781006 $ =
2017-11-19 09:56 METAR KHPN 191456Z 30034G40KT 10SM BKN038 09/01 A2934 RMK AO2 PK WND 30040/1456
                 SLP937 60002 T00940011 53048 $ =
2017-11-19 08:56 METAR KHPN 191356Z 29019G26KT 10SM SCT034 BKN041 11/06 A2927 RMK AO2 PK WND
                 27029/1308 SLP914 T01110056 $ =
2017-11-19 07:56 METAR KHPN 191256Z 25010G19KT 210V350 10SM SCT015 BKN039 14/12 A2921 RMK AO2
                 RAE52 SLP891 P0002 T01390117 $ =
2017-11-19 06:56 METAR KHPN 191156Z VRB06G16KT 10SM -RA BKN015 OVC020 14/13 A2920 RMK AO2 SLP886
                 P0001 60013 70030 T01440128 10144 20111 58015 $ =
2017-11-19 06:48 METAR KHPN 191148Z 21009G19KT 150V230 10SM -RA BKN015 OVC020 14/13 A2920 RMK AO2
                 P0001 T01440128 $ =
2017-11-19 05:56 METAR KHPN 191056Z 20009G18KT 7SM -RA OVC013 14/13 A2921 RMK AO2 SLP893 P0001
                 T01440128 $ =
2017-11-19 05:25 METAR KHPN 191025Z 22011G19KT 170V300 10SM -RA BR OVC011 14/13 A2923 RMK AO2
                 P0001 T01390128 $ =
2017-11-19 04:56 METAR KHPN 190956Z 18009G14KT 140V210 5SM -RA BR BKN009 OVC014 13/12 A2923 RMK
                 AO2 CIG 005V013 SLP900 P0006 T01330122 $ =
2017-11-19 04:52 METAR KHPN 190952Z 17008KT 150V210 5SM -RA BR BKN009 OVC014 13/12 A2924 RMK AO2
                 CIG 005V013 P0005 $ =
2017-11-19 04:35 METAR KHPN 190935Z 17009KT 5SM -RA BR OVC014 13/12 A2923 RMK AO2 P0004 T01330122
                 $ =
2017-11-19 03:56 METAR KHPN 190856Z 23006KT 10SM -RA BKN030 OVC075 12/12 A2926 RMK AO2 RAB01
                 SLP910 P0001 60005 T01170117 58033 $ =
2017-11-19 02:56 METAR KHPN 190756Z AUTO 16006KT 10SM BKN030 OVC075 12/11 A2930 RMK AO2 RAE55
                 SLP922 P0003 T01170111 =

Support USWX by starting your Amazon purchase here.